createdAt,value
2022-10-18T00:01:04.568Z,102646.20
2022-10-18T00:03:32.285Z,102650.09
2022-10-18T00:06:00.980Z,102648.84
2022-10-18T00:08:28.981Z,102654.57
2022-10-18T00:10:56.626Z,102653.88
2022-10-18T00:13:25.081Z,102645.61
2022-10-18T00:15:55.018Z,102648.36
2022-10-18T00:18:23.067Z,102655.59
2022-10-18T00:21:02.799Z,102650.98
2022-10-18T00:23:32.352Z,102652.15
2022-10-18T00:26:02.439Z,102659.02
2022-10-18T00:28:30.277Z,102663.04
2022-10-18T00:30:58.400Z,102660.03
2022-10-18T00:33:25.972Z,102655.42
2022-10-18T00:35:53.816Z,102650.48
2022-10-18T00:38:21.470Z,102643.45
2022-10-18T00:40:49.086Z,102642.99
2022-10-18T00:43:18.237Z,102625.40
2022-10-18T00:45:45.902Z,102623.93
2022-10-18T00:48:16.618Z,102639.92
2022-10-18T00:50:44.810Z,102644.17
2022-10-18T00:53:19.071Z,102655.68
2022-10-18T00:55:47.571Z,102662.02
2022-10-18T00:58:18.274Z,102666.73
2022-10-18T01:00:45.884Z,102664.94
2022-10-18T01:03:13.591Z,102660.91
2022-10-18T01:05:46.149Z,102664.61
2022-10-18T01:08:13.697Z,102658.85
2022-10-18T01:11:01.520Z,102679.42
2022-10-18T01:14:04.483Z,102676.31
2022-10-18T01:16:40.831Z,102674.84
2022-10-18T01:19:26.166Z,102667.59
2022-10-18T01:22:21.420Z,102664.28
2022-10-18T01:27:52.058Z,102663.56
2022-10-18T01:30:44.218Z,102656.44
2022-10-18T01:33:19.300Z,102672.06
2022-10-18T01:36:10.904Z,102674.62
2022-10-18T01:38:40.767Z,102658.62
2022-10-18T01:41:14.782Z,102651.62
2022-10-18T01:43:45.192Z,102661.83
2022-10-18T01:46:16.953Z,102661.02
2022-10-18T01:48:44.928Z,102662.19
2022-10-18T01:51:12.837Z,102656.30
2022-10-18T01:53:40.486Z,102649.63
2022-10-18T01:56:25.241Z,102651.56
2022-10-18T01:59:23.131Z,102658.46
2022-10-18T02:02:41.349Z,102646.85
2022-10-18T02:05:31.821Z,102640.28
2022-10-18T02:08:23.960Z,102662.38
2022-10-18T02:11:00.711Z,102659.51
2022-10-18T02:13:33.342Z,102659.97
2022-10-18T02:16:10.872Z,102655.81
2022-10-18T02:18:43.129Z,102659.97
2022-10-18T02:21:13.897Z,102662.84
2022-10-18T02:23:41.580Z,102646.43
2022-10-18T02:26:09.275Z,102650.09
2022-10-18T02:28:36.990Z,102651.70
2022-10-18T02:31:23.165Z,102642.27
2022-10-18T02:33:57.052Z,102650.77
2022-10-18T02:36:32.645Z,102649.05
2022-10-18T02:39:05.956Z,102651.43
2022-10-18T02:41:34.317Z,102660.39
2022-10-18T02:44:01.944Z,102664.22
2022-10-18T02:46:29.713Z,102661.34
2022-10-18T02:48:57.342Z,102660.88
2022-10-18T02:51:25.925Z,102653.85
2022-10-18T02:53:53.727Z,102652.48
2022-10-18T02:56:21.358Z,102658.88
2022-10-18T02:58:48.985Z,102659.70
2022-10-18T03:01:16.649Z,102676.84
2022-10-18T03:03:44.388Z,102675.20
2022-10-18T03:06:12.045Z,102667.84
2022-10-18T03:08:40.065Z,102664.64
2022-10-18T03:11:07.722Z,102667.84
2022-10-18T03:13:35.451Z,102661.63
2022-10-18T03:16:03.221Z,102666.11
2022-10-18T03:18:30.994Z,102676.35
2022-10-18T03:20:58.638Z,102678.77
2022-10-18T03:23:26.353Z,102681.65
2022-10-18T03:25:53.955Z,102672.69
2022-10-18T03:28:22.178Z,102674.42
2022-10-18T03:30:49.785Z,102670.73
2022-10-18T03:33:17.592Z,102677.07
2022-10-18T03:35:45.223Z,102663.86
2022-10-18T03:38:12.854Z,102670.73
2022-10-18T03:40:40.469Z,102662.58
2022-10-18T03:43:08.132Z,102673.60
2022-10-18T03:45:35.782Z,102676.48
2022-10-18T03:48:03.402Z,102676.48
2022-10-18T03:50:31.013Z,102676.48
2022-10-18T03:52:58.645Z,102685.57
2022-10-18T03:55:26.378Z,102677.40
2022-10-18T03:57:54.039Z,102681.41
2022-10-18T04:00:21.822Z,102674.74
2022-10-18T04:02:53.357Z,102680.05
2022-10-18T04:05:25.244Z,102674.62
2022-10-18T04:07:52.861Z,102676.09
2022-10-18T04:10:20.929Z,102676.31
2022-10-18T04:12:48.558Z,102678.73
2022-10-18T04:15:16.671Z,102670.43
2022-10-18T04:17:44.338Z,102667.88
2022-10-18T04:20:12.490Z,102675.70
2022-10-18T04:22:40.286Z,102693.32
2022-10-18T04:25:08.247Z,102690.09
2022-10-18T04:27:36.241Z,102680.99
2022-10-18T04:30:04.009Z,102688.35
2022-10-18T04:32:31.921Z,102699.08
2022-10-18T04:34:59.625Z,102705.71
2022-10-18T04:37:27.237Z,102692.30
2022-10-18T04:39:54.847Z,102691.85
2022-10-18T04:42:23.629Z,102698.72
2022-10-18T04:44:51.463Z,102701.73
2022-10-18T04:47:19.096Z,102705.06
2022-10-18T04:49:46.712Z,102707.61
2022-10-18T04:52:14.574Z,102695.77
2022-10-18T04:54:42.154Z,102690.48
2022-10-18T04:57:09.802Z,102701.04
2022-10-18T04:59:38.303Z,102700.58
2022-10-18T05:02:06.002Z,102701.04
2022-10-18T05:04:33.649Z,102697.84
2022-10-18T05:07:01.420Z,102706.92
2022-10-18T05:09:29.149Z,102704.96
2022-10-18T05:11:56.803Z,102697.27
2022-10-18T05:14:24.555Z,102703.16
2022-10-18T05:16:52.151Z,102698.36
2022-10-18T05:19:19.854Z,102704.99
2022-10-18T05:21:47.607Z,102709.28
2022-10-18T05:24:15.366Z,102719.16
2022-10-18T05:26:42.982Z,102720.56
2022-10-18T05:29:10.771Z,102713.53
2022-10-18T05:31:38.475Z,102700.65
2022-10-18T05:34:06.140Z,102705.16
2022-10-18T05:36:33.861Z,102705.95
2022-10-18T05:39:04.922Z,102696.52
2022-10-18T05:41:33.436Z,102698.59
2022-10-18T05:44:08.049Z,102707.55
2022-10-18T05:46:35.749Z,102701.79
2022-10-18T05:49:03.413Z,102709.64
2022-10-18T05:51:31.046Z,102701.46
2022-10-18T05:53:59.858Z,102701.92
2022-10-18T05:56:27.555Z,102706.27
2022-10-18T05:58:55.241Z,102707.87
2022-10-18T06:01:23.016Z,102705.81
2022-10-18T06:03:51.753Z,102705.71
2022-10-18T06:06:19.506Z,102713.49
2022-10-18T06:08:50.464Z,102724.77
2022-10-18T06:11:19.754Z,102721.48
2022-10-18T06:13:49.631Z,102711.57
2022-10-18T06:16:20.016Z,102715.39
2022-10-18T06:18:52.521Z,102710.29
2022-10-18T06:21:20.902Z,102715.82
2022-10-18T06:23:56.285Z,102705.42
2022-10-18T06:26:24.306Z,102709.44
2022-10-18T06:28:52.603Z,102711.86
2022-10-18T06:31:21.645Z,102718.80
2022-10-18T06:33:49.515Z,102717.03
2022-10-18T06:36:23.338Z,102715.75
2022-10-18T06:38:52.050Z,102710.81
2022-10-18T06:41:20.662Z,102710.36
2022-10-18T06:43:52.947Z,102716.57
2022-10-18T06:46:20.938Z,102729.23
2022-10-18T06:48:48.618Z,102729.55
2022-10-18T06:51:16.533Z,102737.73
2022-10-18T06:53:53.412Z,102738.51
2022-10-18T06:56:27.226Z,102747.47
2022-10-18T06:58:54.915Z,102754.05
2022-10-18T07:01:22.803Z,102774.19
2022-10-18T07:03:53.218Z,102768.30
2022-10-18T07:06:21.802Z,102776.94
2022-10-18T07:08:51.379Z,102782.20
2022-10-18T07:11:25.389Z,102772.45
2022-10-18T07:13:55.586Z,102767.02
2022-10-18T07:16:23.367Z,102779.23
2022-10-18T07:18:52.503Z,102766.93
2022-10-18T07:21:22.448Z,102774.61
2022-10-18T07:23:51.072Z,102777.36
2022-10-18T07:26:26.048Z,102777.36
2022-10-18T07:29:00.191Z,102779.75
2022-10-18T07:31:28.283Z,102765.72
2022-10-18T07:33:56.235Z,102758.59
2022-10-18T07:36:23.983Z,102753.48
2022-10-18T07:38:53.126Z,102755.74
2022-10-18T07:41:21.883Z,102756.14
2022-10-18T07:43:54.720Z,102766.27
2022-10-18T07:46:23.711Z,102757.02
2022-10-18T07:48:51.986Z,102757.34
2022-10-18T07:51:20.807Z,102750.31
2022-10-18T07:53:49.125Z,102762.64
2022-10-18T07:56:21.615Z,102764.12
2022-10-18T07:58:54.631Z,102762.71
2022-10-18T08:01:24.531Z,102753.45
2022-10-18T08:03:53.392Z,102755.25
2022-10-18T08:06:22.672Z,102763.10
2022-10-18T08:08:50.507Z,102762.61
2022-10-18T08:11:23.595Z,102756.59
2022-10-18T08:13:52.480Z,102757.61
2022-10-18T08:16:22.810Z,102770.91
2022-10-18T08:18:50.788Z,102770.30
2022-10-18T08:21:19.824Z,102768.43
2022-10-18T08:23:48.037Z,102771.51
2022-10-18T08:26:18.308Z,102780.47
2022-10-18T08:28:54.088Z,102782.55
2022-10-18T08:31:32.198Z,102779.19
2022-10-18T08:33:59.966Z,102781.28
2022-10-18T08:36:27.622Z,102780.47
2022-10-18T08:38:55.265Z,102787.04
2022-10-18T08:41:30.370Z,102781.94
2022-10-18T08:44:26.250Z,102785.14
2022-10-18T08:46:59.875Z,102784.81
2022-10-18T08:49:33.453Z,102786.09
2022-10-18T08:52:01.282Z,102780.01
2022-10-18T08:54:50.683Z,102776.18
2022-10-18T08:57:19.350Z,102766.86
2022-10-18T08:59:47.093Z,102773.11
2022-10-18T09:02:40.358Z,102767.84
2022-10-18T09:05:26.250Z,102768.73
2022-10-18T09:07:54.189Z,102760.91
2022-10-18T09:10:55.667Z,102769.71
2022-10-18T09:13:47.664Z,102774.74
2022-10-18T09:16:25.583Z,102779.68
2022-10-18T09:19:19.538Z,102783.70
2022-10-18T09:21:56.013Z,102779.42
2022-10-18T09:24:28.151Z,102781.05
2022-10-18T09:27:19.201Z,102770.66
2022-10-18T09:29:46.769Z,102766.66
2022-10-18T09:32:26.559Z,102766.34
2022-10-18T09:35:13.126Z,102763.16
2022-10-18T09:37:42.462Z,102759.02
2022-10-18T09:40:32.073Z,102762.05
2022-10-18T09:43:06.971Z,102750.35
2022-10-18T09:45:41.519Z,102741.55
2022-10-18T09:48:34.579Z,102749.23
2022-10-18T09:51:09.062Z,102743.77
2022-10-18T09:53:45.291Z,102752.28
2022-10-18T09:56:18.888Z,102743.65
2022-10-18T09:58:49.374Z,102736.74
2022-10-18T10:01:30.306Z,102747.14
2022-10-18T10:03:58.461Z,102740.90
2022-10-18T10:06:33.142Z,102744.92
2022-10-18T10:09:15.114Z,102739.79
2022-10-18T10:11:48.025Z,102745.54
2022-10-18T10:14:18.542Z,102753.59
2022-10-18T10:17:04.472Z,102749.73
2022-10-18T10:19:54.009Z,102747.14
2022-10-18T10:22:29.643Z,102747.80
2022-10-18T10:24:57.683Z,102746.98
2022-10-18T10:27:25.220Z,102744.92
2022-10-18T10:29:58.822Z,102740.24
2022-10-18T10:32:32.793Z,102739.30
2022-10-18T10:35:00.785Z,102734.62
2022-10-18T10:37:34.674Z,102727.23
2022-10-18T10:40:26.483Z,102736.55
2022-10-18T10:43:38.824Z,102725.63
2022-10-18T10:46:11.425Z,102731.38
2022-10-18T10:49:21.642Z,102725.63
2022-10-18T10:51:53.692Z,102720.30
2022-10-18T10:54:37.230Z,102722.33
2022-10-18T10:57:06.148Z,102719.71
2022-10-18T10:59:52.826Z,102706.04
2022-10-18T11:02:30.765Z,102712.88
2022-10-18T11:05:22.899Z,102704.44
2022-10-18T11:07:56.360Z,102713.73
2022-10-18T11:10:26.767Z,102714.74
2022-10-18T11:12:57.409Z,102700.52
2022-10-18T11:15:33.710Z,102702.57
2022-10-18T11:18:25.611Z,102694.14
2022-10-18T11:21:02.274Z,102683.09
2022-10-18T11:23:33.926Z,102686.19
2022-10-18T11:26:07.526Z,102671.61
2022-10-18T11:28:38.154Z,102671.34
2022-10-18T11:31:27.086Z,102673.41
2022-10-18T11:34:30.414Z,102667.32
2022-10-18T11:37:15.978Z,102661.70
2022-10-18T11:40:07.158Z,102657.41
2022-10-18T11:42:52.924Z,102658.59
2022-10-18T11:45:59.953Z,102655.48
2022-10-18T11:48:36.248Z,102646.66
2022-10-18T11:52:03.073Z,102638.61
2022-10-18T11:55:01.005Z,102633.67
2022-10-18T11:57:44.037Z,102640.45
2022-10-18T12:00:41.600Z,102631.58
2022-10-18T12:03:24.029Z,102622.23
2022-10-18T12:05:53.971Z,102614.94
2022-10-18T12:09:02.901Z,102613.50
2022-10-18T12:11:35.550Z,102608.63
2022-10-18T12:14:26.207Z,102601.56
2022-10-18T12:17:20.357Z,102594.27
2022-10-18T12:19:47.218Z,102604.41
2022-10-18T12:22:22.391Z,102593.42
2022-10-18T12:24:50.014Z,102595.61
2022-10-18T12:27:18.636Z,102594.11
2022-10-18T12:30:01.215Z,102594.66
2022-10-18T12:32:35.483Z,102595.74
2022-10-18T12:35:08.250Z,102598.42
2022-10-18T12:38:10.765Z,102596.82
2022-10-18T12:40:45.059Z,102593.91
2022-10-18T12:43:37.637Z,102600.52
2022-10-18T12:46:13.749Z,102600.81
2022-10-18T12:48:49.960Z,102588.65
2022-10-18T12:51:18.679Z,102597.15
2022-10-18T12:54:01.436Z,102601.62
2022-10-18T12:56:28.943Z,102597.21
2022-10-18T12:59:15.431Z,102586.91
2022-10-18T13:01:52.275Z,102583.77
2022-10-18T13:04:46.161Z,102586.98
2022-10-18T13:07:19.864Z,102578.77
2022-10-18T13:10:16.192Z,102575.08
2022-10-18T13:13:14.215Z,102571.31
2022-10-18T13:16:03.237Z,102577.59
2022-10-18T13:19:04.799Z,102575.63
2022-10-18T13:21:46.903Z,102577.62
2022-10-18T13:24:43.664Z,102572.23
2022-10-18T13:27:38.162Z,102571.09
2022-10-18T13:30:21.789Z,102570.76
2022-10-18T13:33:37.123Z,102574.12
2022-10-18T13:36:23.038Z,102571.97
2022-10-18T13:38:58.658Z,102576.65
2022-10-18T13:41:48.187Z,102564.48
2022-10-18T13:44:41.393Z,102553.56
2022-10-18T13:47:09.962Z,102550.59
2022-10-18T13:49:40.670Z,102557.71
2022-10-18T13:52:56.892Z,102550.32
2022-10-18T13:55:52.078Z,102552.41
2022-10-18T13:58:44.623Z,102553.43
2022-10-18T14:01:42.672Z,102549.99
2022-10-18T14:04:45.692Z,102544.41
2022-10-18T14:07:13.892Z,102548.33
2022-10-18T14:09:52.480Z,102551.47
2022-10-18T14:12:41.600Z,102539.53
2022-10-18T14:15:24.957Z,102535.87
2022-10-18T14:17:58.026Z,102539.30
2022-10-18T14:20:55.374Z,102537.73
2022-10-18T14:23:36.263Z,102552.02
2022-10-18T14:26:21.605Z,102543.59
2022-10-18T14:29:05.252Z,102544.17
2022-10-18T14:31:33.712Z,102542.05
2022-10-18T14:34:02.332Z,102543.42
2022-10-18T14:36:43.479Z,102537.11
2022-10-18T14:39:22.173Z,102531.59
2022-10-18T14:41:57.117Z,102538.98
2022-10-18T14:44:30.811Z,102534.56
2022-10-18T14:47:04.697Z,102540.64
2022-10-18T14:49:32.430Z,102540.94
2022-10-18T14:52:01.738Z,102537.83
2022-10-18T14:54:37.529Z,102545.81
2022-10-18T14:57:06.900Z,102541.85
2022-10-18T14:59:52.914Z,102550.35
2022-10-18T15:02:24.838Z,102550.91
2022-10-18T15:05:20.551Z,102547.51
2022-10-18T15:07:49.434Z,102549.90
2022-10-18T15:10:19.482Z,102533.74
2022-10-18T15:13:08.841Z,102536.91
2022-10-18T15:15:36.644Z,102544.83
2022-10-18T15:18:06.360Z,102550.35
2022-10-18T15:20:40.348Z,102536.85
2022-10-18T15:23:29.238Z,102542.08
2022-10-18T15:26:13.438Z,102537.30
2022-10-18T15:28:52.179Z,102533.84
2022-10-18T15:31:29.480Z,102536.42
2022-10-18T15:34:11.841Z,102539.04
2022-10-18T15:36:39.886Z,102526.62
2022-10-18T15:39:15.182Z,102527.59
2022-10-18T15:41:56.953Z,102530.73
2022-10-18T15:44:36.649Z,102535.48
2022-10-18T15:47:13.242Z,102530.38
2022-10-18T15:49:46.547Z,102526.13
2022-10-18T15:52:26.238Z,102529.79
2022-10-18T15:54:53.873Z,102531.29
2022-10-18T15:57:21.734Z,102530.70
2022-10-18T16:00:03.047Z,102532.24
2022-10-18T16:02:31.964Z,102532.47
2022-10-18T16:05:03.928Z,102529.00
2022-10-18T16:07:31.939Z,102531.52
2022-10-18T16:09:59.852Z,102534.66
2022-10-18T16:12:27.441Z,102534.07
2022-10-18T16:14:55.087Z,102530.57
2022-10-18T16:17:22.753Z,102533.74
2022-10-18T16:19:50.401Z,102529.46
2022-10-18T16:22:18.158Z,102530.96
2022-10-18T16:24:45.821Z,102539.59
2022-10-18T16:27:13.432Z,102537.66
2022-10-18T16:29:42.612Z,102536.49
2022-10-18T16:32:10.323Z,102542.21
2022-10-18T16:34:37.924Z,102543.42
2022-10-18T16:37:05.571Z,102546.23
2022-10-18T16:39:35.970Z,102551.63
2022-10-18T16:42:03.635Z,102545.77
2022-10-18T16:44:31.337Z,102551.17
2022-10-18T16:46:58.984Z,102548.20
2022-10-18T16:49:27.811Z,102553.07
2022-10-18T16:51:55.800Z,102554.57
2022-10-18T16:54:24.551Z,102551.30
2022-10-18T16:56:52.400Z,102554.90
2022-10-18T16:59:27.663Z,102562.48
2022-10-18T17:01:55.529Z,102568.18
2022-10-18T17:04:23.315Z,102566.77
2022-10-18T17:06:51.383Z,102566.67
2022-10-18T17:09:19.238Z,102568.18
2022-10-18T17:11:46.944Z,102575.44
2022-10-18T17:14:14.589Z,102573.21
2022-10-18T17:16:45.587Z,102578.09
2022-10-18T17:19:16.617Z,102564.80
2022-10-18T17:21:44.354Z,102579.49
2022-10-18T17:24:12.237Z,102575.17
2022-10-18T17:26:39.917Z,102567.98
2022-10-18T17:29:09.318Z,102576.55
2022-10-18T17:31:37.136Z,102587.50
2022-10-18T17:34:05.354Z,102589.01
2022-10-18T17:36:34.660Z,102585.48
2022-10-18T17:39:02.744Z,102591.43
2022-10-18T17:41:30.685Z,102590.02
2022-10-18T17:43:58.399Z,102597.31
2022-10-18T17:46:26.138Z,102593.98
2022-10-18T17:48:54.538Z,102599.93
2022-10-18T17:51:23.232Z,102590.15
2022-10-18T17:53:51.062Z,102602.67
2022-10-18T17:56:18.796Z,102602.09
2022-10-18T17:58:47.924Z,102602.25
2022-10-18T18:01:18.907Z,102592.18
2022-10-18T18:03:48.756Z,102596.82
2022-10-18T18:06:32.012Z,102596.20
2022-10-18T18:09:01.247Z,102589.82
2022-10-18T18:11:29.986Z,102603.16
2022-10-18T18:16:27.876Z,102603.46
2022-10-18T18:18:58.021Z,102606.86
2022-10-18T18:21:27.044Z,102606.20
2022-10-18T18:23:55.068Z,102605.09
2022-10-18T18:26:23.928Z,102611.08
2022-10-18T18:28:51.757Z,102609.48
2022-10-18T18:31:24.588Z,102613.34
2022-10-18T18:33:53.801Z,102610.95
2022-10-18T18:36:22.416Z,102611.41
2022-10-18T18:38:56.925Z,102608.53
2022-10-18T18:41:27.025Z,102603.72
2022-10-18T18:44:00.141Z,102602.94
2022-10-18T18:46:30.239Z,102608.23
2022-10-18T18:48:59.410Z,102607.41
2022-10-18T18:51:27.476Z,102612.71
2022-10-18T18:53:55.611Z,102611.90
2022-10-18T18:56:26.469Z,102608.70
2022-10-18T18:58:54.768Z,102611.27
2022-10-18T19:01:24.957Z,102609.18
2022-10-18T19:03:54.589Z,102614.94
2022-10-18T19:06:30.561Z,102613.70
2022-10-18T19:09:04.227Z,102615.92
2022-10-18T19:11:35.519Z,102612.75
2022-10-18T19:14:04.024Z,102608.23
2022-10-18T19:16:34.748Z,102610.00
2022-10-18T19:19:12.712Z,102611.77
2022-10-18T19:21:42.794Z,102608.59
2022-10-18T19:24:10.455Z,102607.45
2022-10-18T19:26:47.068Z,102616.80
2022-10-18T19:29:41.932Z,102622.55
2022-10-18T19:32:13.091Z,102618.24
2022-10-18T19:34:41.103Z,102610.85
2022-10-18T19:37:10.550Z,102617.91
2022-10-18T19:39:38.658Z,102615.20
2022-10-18T19:42:16.014Z,102612.32
2022-10-18T19:44:46.350Z,102612.78
2022-10-18T19:47:15.766Z,102613.59
2022-10-18T19:49:46.181Z,102615.69
2022-10-18T19:52:14.099Z,102619.05
2022-10-18T19:54:41.803Z,102626.91
2022-10-18T19:57:09.898Z,102629.78
2022-10-18T19:59:37.642Z,102623.24
2022-10-18T20:02:05.818Z,102624.03
2022-10-18T20:04:35.880Z,102622.43
2022-10-18T20:07:03.907Z,102626.58
2022-10-18T20:09:31.719Z,102628.67
2022-10-18T20:11:59.351Z,102634.13
2022-10-18T20:14:27.175Z,102623.08
2022-10-18T20:16:54.929Z,102622.75
2022-10-18T20:19:22.603Z,102618.77
2022-10-18T20:21:50.323Z,102615.52
2022-10-18T20:24:18.037Z,102621.80
2022-10-18T20:26:45.923Z,102616.97
2022-10-18T20:29:13.755Z,102627.89
2022-10-18T20:31:41.466Z,102635.77
2022-10-18T20:34:14.899Z,102623.11
2022-10-18T20:36:42.849Z,102622.30
2022-10-18T20:39:10.924Z,102630.47
2022-10-18T20:41:42.043Z,102631.26
2022-10-18T20:44:14.585Z,102624.39
2022-10-18T20:46:42.937Z,102621.97
2022-10-18T20:49:16.386Z,102626.45
2022-10-18T20:51:44.312Z,102628.21
2022-10-18T20:54:14.904Z,102623.73
2022-10-18T20:56:42.851Z,102620.86
2022-10-18T20:59:10.990Z,102625.01
2022-10-18T21:01:40.070Z,102623.41
2022-10-18T21:04:10.304Z,102629.66
2022-10-18T21:06:44.192Z,102623.57
2022-10-18T21:09:14.848Z,102624.06
2022-10-18T21:11:45.801Z,102620.82
2022-10-18T21:14:21.486Z,102626.28
2022-10-18T21:16:50.317Z,102625.20
2022-10-18T21:19:26.537Z,102624.52
2022-10-18T21:21:58.430Z,102613.95
2022-10-18T21:24:26.948Z,102616.97
2022-10-18T21:26:55.730Z,102620.34
2022-10-18T21:29:25.662Z,102618.08
2022-10-18T21:31:59.098Z,102606.70
2022-10-18T21:34:27.526Z,102610.55
2022-10-18T21:36:55.204Z,102610.23
2022-10-18T21:41:57.030Z,102602.22
2022-10-18T21:44:24.751Z,102607.97
2022-10-18T21:46:52.729Z,102597.41
2022-10-18T21:49:20.523Z,102592.60
2022-10-18T21:51:48.184Z,102589.07
2022-10-18T21:54:17.238Z,102587.47
2022-10-18T21:56:45.314Z,102587.14
2022-10-18T21:59:13.684Z,102587.14
2022-10-18T22:01:41.619Z,102585.21
2022-10-18T22:04:19.868Z,102586.49
2022-10-18T22:06:47.506Z,102578.80
2022-10-18T22:09:15.341Z,102569.02
2022-10-18T22:11:47.267Z,102570.30
2022-10-18T22:14:14.958Z,102560.23
2022-10-18T22:16:42.589Z,102559.91
2022-10-18T22:19:10.250Z,102557.65
2022-10-18T22:21:37.906Z,102552.38
2022-10-18T22:24:07.707Z,102549.96
2022-10-18T22:26:38.393Z,102541.00
2022-10-18T22:29:10.912Z,102542.73
2022-10-18T22:31:41.475Z,102548.98
2022-10-18T22:34:14.742Z,102551.89
2022-10-18T22:36:43.146Z,102538.91
2022-10-18T22:39:11.510Z,102543.84
2022-10-18T22:41:39.116Z,102538.59
2022-10-18T22:44:07.029Z,102530.08
2022-10-18T22:46:36.153Z,102529.79
2022-10-18T22:49:03.831Z,102539.66
2022-10-18T22:51:31.883Z,102537.73
2022-10-18T22:53:59.687Z,102534.69
2022-10-18T22:56:27.503Z,102535.15
2022-10-18T22:58:55.248Z,102539.30
2022-10-18T23:01:24.854Z,102530.34
2022-10-18T23:03:59.955Z,102534.49
2022-10-18T23:06:33.482Z,102531.00
2022-10-18T23:09:03.453Z,102536.42
2022-10-18T23:11:31.117Z,102544.41
2022-10-18T23:13:59.142Z,102555.13
2022-10-18T23:16:26.776Z,102549.96
2022-10-18T23:18:56.438Z,102542.28
2022-10-18T23:21:25.932Z,102546.76
2022-10-18T23:23:54.917Z,102546.76
2022-10-18T23:26:25.578Z,102540.67
2022-10-18T23:28:54.323Z,102541.13
2022-10-18T23:31:25.784Z,102538.59
2022-10-18T23:33:55.284Z,102538.91
2022-10-18T23:36:23.570Z,102536.52
2022-10-18T23:38:51.849Z,102534.43
2022-10-18T23:41:19.771Z,102537.80
2022-10-18T23:43:47.807Z,102533.77
2022-10-18T23:46:16.638Z,102536.66
2022-10-18T23:48:44.758Z,102528.02
2022-10-18T23:51:12.894Z,102534.27
2022-10-18T23:53:40.780Z,102534.76
2022-10-18T23:56:11.300Z,102535.21
2022-10-18T23:58:40.077Z,102533.74
